createdAt,value
2022-12-29T00:01:14.822Z,97926.72
2022-12-29T00:03:20.263Z,97924.75
2022-12-29T00:05:27.954Z,97918.19
2022-12-29T00:07:33.370Z,97919.81
2022-12-29T00:09:38.883Z,97908.06
2022-12-29T00:11:43.892Z,97908.91
2022-12-29T00:14:02.225Z,97909.59
2022-12-29T00:16:11.263Z,97906.41
2022-12-29T00:18:16.215Z,97902.75
2022-12-29T00:20:35.481Z,97896.75
2022-12-29T00:22:55.461Z,97900.63
2022-12-29T00:25:13.166Z,97892.25
2022-12-29T00:27:30.555Z,97897.16
2022-12-29T00:29:47.979Z,97893.66
2022-12-29T00:32:05.795Z,97873.50
2022-12-29T00:34:27.535Z,97876.88
2022-12-29T00:36:36.650Z,97879.88
2022-12-29T00:39:05.934Z,97882.78
2022-12-29T00:41:23.800Z,97880.75
2022-12-29T00:43:42.032Z,97880.63
2022-12-29T00:45:47.667Z,97884.41
2022-12-29T00:47:52.613Z,97886.84
2022-12-29T00:49:54.944Z,97886.63
2022-12-29T00:52:04.147Z,97881.06
2022-12-29T00:54:11.983Z,97887.38
2022-12-29T00:56:17.623Z,97892.06
2022-12-29T00:58:23.142Z,97899.28
2022-12-29T01:00:28.468Z,97894.06
2022-12-29T01:02:34.784Z,97885.00
2022-12-29T01:04:41.614Z,97907.75
2022-12-29T01:06:47.387Z,97904.13
2022-12-29T01:09:19.285Z,97897.13
2022-12-29T01:11:24.221Z,97902.03
2022-12-29T01:13:29.203Z,97905.41
2022-12-29T01:15:34.136Z,97907.53
2022-12-29T01:17:39.500Z,97904.09
2022-12-29T01:19:44.463Z,97906.84
2022-12-29T01:21:50.026Z,97909.84
2022-12-29T01:23:55.108Z,97911.50
2022-12-29T01:26:00.408Z,97901.44
2022-12-29T01:28:09.537Z,97903.09
2022-12-29T01:30:15.990Z,97899.78
2022-12-29T01:32:23.420Z,97895.63
2022-12-29T01:34:28.385Z,97891.50
2022-12-29T01:36:33.754Z,97888.59
2022-12-29T01:38:40.915Z,97885.44
2022-12-29T01:40:49.641Z,97898.41
2022-12-29T01:42:55.335Z,97896.19
2022-12-29T01:45:05.630Z,97895.50
2022-12-29T01:47:11.807Z,97888.75
2022-12-29T01:49:23.055Z,97893.16
2022-12-29T01:51:30.265Z,97894.25
2022-12-29T01:53:37.847Z,97891.25
2022-12-29T01:55:48.185Z,97895.25
2022-12-29T01:57:56.778Z,97893.38
2022-12-29T02:00:08.804Z,97891.22
2022-12-29T02:02:20.540Z,97882.03
2022-12-29T02:04:27.678Z,97878.72
2022-12-29T02:06:39.087Z,97883.19
2022-12-29T02:08:44.668Z,97886.09
2022-12-29T02:10:50.624Z,97884.56
2022-12-29T02:12:56.459Z,97881.28
2022-12-29T02:15:07.498Z,97881.19
2022-12-29T02:17:21.021Z,97877.13
2022-12-29T02:20:15.344Z,97883.88
2022-12-29T02:22:31.346Z,97884.34
2022-12-29T02:25:18.659Z,97876.84
2022-12-29T02:27:55.005Z,97874.81
2022-12-29T02:30:19.946Z,97870.53
2022-12-29T02:32:36.964Z,97877.34
2022-12-29T02:34:51.646Z,97879.81
2022-12-29T02:37:06.717Z,97883.06
2022-12-29T02:39:25.233Z,97879.69
2022-12-29T02:41:36.262Z,97866.94
2022-12-29T02:43:48.677Z,97877.47
2022-12-29T02:45:59.822Z,97886.72
2022-12-29T02:48:14.612Z,97893.47
2022-12-29T02:50:27.263Z,97885.19
2022-12-29T02:52:40.436Z,97890.22
2022-12-29T02:54:43.164Z,97891.94
2022-12-29T02:56:49.289Z,97892.78
2022-12-29T02:58:54.538Z,97894.28
2022-12-29T03:01:19.128Z,97885.75
2022-12-29T03:03:41.136Z,97888.22
2022-12-29T03:06:20.376Z,97882.19
2022-12-29T03:08:35.884Z,97889.75
2022-12-29T03:10:52.068Z,97890.56
2022-12-29T03:13:18.616Z,97881.34
2022-12-29T03:15:43.485Z,97880.47
2022-12-29T03:17:59.119Z,97877.13
2022-12-29T03:20:13.287Z,97878.16
2022-12-29T03:22:28.293Z,97871.28
2022-12-29T03:24:49.208Z,97876.06
2022-12-29T03:27:01.590Z,97861.50
2022-12-29T03:29:12.452Z,97860.75
2022-12-29T03:31:18.088Z,97847.28
2022-12-29T03:33:28.999Z,97839.00
2022-12-29T03:35:43.089Z,97848.94
2022-12-29T03:37:59.756Z,97846.47
2022-12-29T03:40:05.332Z,97853.09
2022-12-29T03:42:17.310Z,97841.91
2022-12-29T03:44:23.450Z,97842.63
2022-12-29T03:46:29.123Z,97838.41
2022-12-29T03:48:34.167Z,97834.44
2022-12-29T03:50:42.809Z,97832.59
2022-12-29T03:52:47.902Z,97822.94
2022-12-29T03:54:52.878Z,97821.31
2022-12-29T03:56:57.937Z,97826.44
2022-12-29T03:59:15.938Z,97824.94
2022-12-29T04:01:21.004Z,97819.91
2022-12-29T04:03:26.386Z,97824.19
2022-12-29T04:05:32.167Z,97817.34
2022-12-29T04:07:41.033Z,97819.66
2022-12-29T04:09:46.238Z,97822.03
2022-12-29T04:11:57.227Z,97809.59
2022-12-29T04:14:02.963Z,97814.50
2022-12-29T04:16:10.388Z,97824.47
2022-12-29T04:18:17.050Z,97825.28
2022-12-29T04:20:36.855Z,97821.31
2022-12-29T04:22:47.903Z,97819.78
2022-12-29T04:24:53.334Z,97829.59
2022-12-29T04:26:58.269Z,97825.16
2022-12-29T04:29:26.734Z,97822.34
2022-12-29T04:31:54.514Z,97815.16
2022-12-29T04:34:02.953Z,97814.53
2022-12-29T04:36:09.621Z,97799.50
2022-12-29T04:38:19.960Z,97797.63
2022-12-29T04:40:26.925Z,97812.97
2022-12-29T04:42:32.303Z,97802.09
2022-12-29T04:44:44.738Z,97813.81
2022-12-29T04:47:10.289Z,97813.53
2022-12-29T04:49:33.751Z,97808.63
2022-12-29T04:51:48.546Z,97792.47
2022-12-29T04:53:57.675Z,97823.22
2022-12-29T04:56:04.135Z,97813.91
2022-12-29T04:58:09.496Z,97828.25
2022-12-29T05:00:17.424Z,97820.19
2022-12-29T05:02:24.409Z,97813.53
2022-12-29T05:04:30.139Z,97816.00
2022-12-29T05:06:35.842Z,97809.75
2022-12-29T05:08:41.890Z,97819.13
2022-12-29T05:10:51.163Z,97815.59
2022-12-29T05:12:56.241Z,97810.53
2022-12-29T05:15:03.740Z,97814.53
2022-12-29T05:17:09.774Z,97796.03
2022-12-29T05:19:15.097Z,97804.59
2022-12-29T05:21:20.024Z,97803.59
2022-12-29T05:23:25.356Z,97792.22
2022-12-29T05:25:35.633Z,97798.03
2022-12-29T05:28:11.877Z,97806.22
2022-12-29T05:30:37.414Z,97791.00
2022-12-29T05:32:42.519Z,97798.47
2022-12-29T05:34:47.588Z,97798.41
2022-12-29T05:36:53.199Z,97794.41
2022-12-29T05:38:58.179Z,97787.47
2022-12-29T05:41:05.048Z,97796.28
2022-12-29T05:43:38.022Z,97801.19
2022-12-29T05:45:53.445Z,97796.88
2022-12-29T05:48:16.896Z,97790.88
2022-12-29T05:50:31.395Z,97799.28
2022-12-29T05:52:50.499Z,97790.19
2022-12-29T05:54:55.986Z,97796.03
2022-12-29T05:57:03.919Z,97795.91
2022-12-29T05:59:12.558Z,97795.72
2022-12-29T06:01:18.464Z,97784.91
2022-12-29T06:03:23.880Z,97782.91
2022-12-29T06:05:30.180Z,97774.75
2022-12-29T06:07:36.633Z,97773.06
2022-12-29T06:09:43.006Z,97774.94
2022-12-29T06:11:49.524Z,97780.66
2022-12-29T06:13:54.815Z,97789.13
2022-12-29T06:16:04.398Z,97781.91
2022-12-29T06:18:13.760Z,97781.91
2022-12-29T06:20:24.573Z,97774.28
2022-12-29T06:22:31.088Z,97770.06
2022-12-29T06:24:37.647Z,97779.13
2022-12-29T06:26:43.041Z,97781.63
2022-12-29T06:28:48.355Z,97769.06
2022-12-29T06:30:55.170Z,97769.25
2022-12-29T06:33:03.213Z,97771.81
2022-12-29T06:35:10.058Z,97783.69
2022-12-29T06:37:20.231Z,97782.78
2022-12-29T06:39:25.159Z,97772.84
2022-12-29T06:41:44.346Z,97779.88
2022-12-29T06:44:01.688Z,97780.66
2022-12-29T06:46:28.047Z,97773.88
2022-12-29T06:48:35.577Z,97789.75
2022-12-29T06:50:40.599Z,97799.66
2022-12-29T06:52:45.547Z,97786.94
2022-12-29T06:54:50.568Z,97794.00
2022-12-29T06:56:55.548Z,97795.91
2022-12-29T06:59:01.129Z,97792.50
2022-12-29T07:01:06.671Z,97790.63
2022-12-29T07:03:12.631Z,97792.38
2022-12-29T07:05:20.773Z,97792.25
2022-12-29T07:07:25.902Z,97790.06
2022-12-29T07:09:30.822Z,97783.69
2022-12-29T07:11:35.928Z,97782.03
2022-12-29T07:13:41.814Z,97784.16
2022-12-29T07:15:46.754Z,97771.97
2022-12-29T07:17:53.168Z,97777.75
2022-12-29T07:19:58.651Z,97782.78
2022-12-29T07:22:06.588Z,97781.91
2022-12-29T07:24:12.718Z,97783.69
2022-12-29T07:26:19.625Z,97779.28
2022-12-29T07:28:25.167Z,97781.38
2022-12-29T07:30:30.152Z,97789.00
2022-12-29T07:32:37.164Z,97805.19
2022-12-29T07:34:43.319Z,97795.94
2022-12-29T07:36:48.587Z,97781.63
2022-12-29T07:38:57.311Z,97800.22
2022-12-29T07:41:02.654Z,97806.53
2022-12-29T07:43:08.181Z,97796.66
2022-12-29T07:45:19.706Z,97798.81
2022-12-29T07:47:41.502Z,97780.50
2022-12-29T07:49:46.723Z,97783.81
2022-12-29T07:51:51.666Z,97780.53
2022-12-29T07:54:01.380Z,97791.63
2022-12-29T07:56:07.145Z,97797.66
2022-12-29T07:58:12.115Z,97781.75
2022-12-29T08:00:19.695Z,97787.84
2022-12-29T08:02:24.688Z,97791.94
2022-12-29T08:04:29.647Z,97785.94
2022-12-29T08:06:34.583Z,97780.53
2022-12-29T08:08:39.611Z,97785.50
2022-12-29T08:10:47.973Z,97787.81
2022-12-29T08:12:52.981Z,97782.03
2022-12-29T08:14:58.071Z,97785.94
2022-12-29T08:17:03.049Z,97788.38
2022-12-29T08:19:08.656Z,97801.19
2022-12-29T08:21:13.667Z,97800.94
2022-12-29T08:23:18.602Z,97796.03
2022-12-29T08:25:23.494Z,97792.38
2022-12-29T08:27:32.407Z,97809.78
2022-12-29T08:29:37.410Z,97800.41
2022-12-29T08:31:42.404Z,97804.84
2022-12-29T08:33:47.407Z,97803.94
2022-12-29T08:35:52.333Z,97809.13
2022-12-29T08:37:57.272Z,97802.44
2022-12-29T08:40:04.754Z,97811.16
2022-12-29T08:42:09.992Z,97790.09
2022-12-29T08:44:17.574Z,97800.25
2022-12-29T08:46:22.584Z,97802.69
2022-12-29T08:48:27.588Z,97805.97
2022-12-29T08:50:32.507Z,97803.94
2022-12-29T08:52:37.478Z,97808.97
2022-12-29T08:54:42.427Z,97810.75
2022-12-29T08:56:47.368Z,97816.91
2022-12-29T08:58:54.392Z,97818.59
2022-12-29T09:01:03.388Z,97807.31
2022-12-29T09:03:08.434Z,97815.81
2022-12-29T09:05:13.788Z,97815.81
2022-12-29T09:07:18.900Z,97824.50
2022-12-29T09:09:24.047Z,97806.81
2022-12-29T09:11:29.738Z,97818.66
2022-12-29T09:13:34.648Z,97820.97
2022-12-29T09:15:40.342Z,97821.88
2022-12-29T09:17:48.172Z,97816.63
2022-12-29T09:19:53.118Z,97816.63
2022-12-29T09:21:58.223Z,97827.44
2022-12-29T09:24:03.306Z,97830.59
2022-12-29T09:26:08.942Z,97840.59
2022-12-29T09:28:14.129Z,97843.06
2022-12-29T09:30:19.219Z,97842.94
2022-12-29T09:32:24.968Z,97837.69
2022-12-29T09:34:34.184Z,97834.91
2022-12-29T09:36:39.195Z,97839.13
2022-12-29T09:38:44.132Z,97830.28
2022-12-29T09:40:55.897Z,97836.00
2022-12-29T09:43:46.160Z,97850.03
2022-12-29T09:46:00.812Z,97838.47
2022-12-29T09:48:11.210Z,97830.81
2022-12-29T09:50:28.165Z,97837.50
2022-12-29T09:52:38.145Z,97848.13
2022-12-29T09:54:59.777Z,97836.25
2022-12-29T09:57:13.614Z,97854.81
2022-12-29T09:59:23.056Z,97851.47
2022-12-29T10:01:36.076Z,97862.97
2022-12-29T10:03:50.967Z,97859.28
2022-12-29T10:06:10.181Z,97865.81
2022-12-29T10:08:35.439Z,97856.81
2022-12-29T10:10:50.332Z,97861.94
2022-12-29T10:13:23.158Z,97871.00
2022-12-29T10:15:48.384Z,97858.19
2022-12-29T10:18:07.829Z,97870.47
2022-12-29T10:20:31.214Z,97869.44
2022-12-29T10:23:10.086Z,97854.88
2022-12-29T10:25:22.262Z,97849.72
2022-12-29T10:27:28.345Z,97852.97
2022-12-29T10:29:40.407Z,97848.13
2022-12-29T10:31:50.503Z,97845.38
2022-12-29T10:34:04.659Z,97858.31
2022-12-29T10:36:20.401Z,97848.53
2022-12-29T10:38:38.199Z,97848.22
2022-12-29T10:40:51.370Z,97842.16
2022-12-29T10:42:58.491Z,97856.78
2022-12-29T10:45:04.168Z,97841.75
2022-12-29T10:47:17.447Z,97861.44
2022-12-29T10:49:23.325Z,97848.75
2022-12-29T10:51:31.609Z,97851.72
2022-12-29T10:53:47.441Z,97848.19
2022-12-29T10:55:54.050Z,97853.69
2022-12-29T10:58:05.709Z,97834.38
2022-12-29T11:00:17.812Z,97850.72
2022-12-29T11:02:51.838Z,97854.91
2022-12-29T11:05:05.821Z,97845.28
2022-12-29T11:07:16.055Z,97854.78
2022-12-29T11:09:41.919Z,97865.28
2022-12-29T11:11:48.181Z,97859.84
2022-12-29T11:13:55.252Z,97860.63
2022-12-29T11:16:01.007Z,97857.72
2022-12-29T11:18:06.204Z,97846.22
2022-12-29T11:20:35.920Z,97845.59
2022-12-29T11:22:48.635Z,97878.28
2022-12-29T11:24:58.388Z,97858.31
2022-12-29T11:27:18.932Z,97848.53
2022-12-29T11:29:32.900Z,97850.44
2022-12-29T11:31:45.580Z,97861.19
2022-12-29T11:33:50.528Z,97863.22
2022-12-29T11:36:02.316Z,97870.97
2022-12-29T11:38:08.979Z,97860.59
2022-12-29T11:40:22.862Z,97865.63
2022-12-29T11:42:38.770Z,97858.19
2022-12-29T11:44:49.736Z,97852.16
2022-12-29T11:46:56.754Z,97857.88
2022-12-29T11:49:02.725Z,97858.03
2022-12-29T11:51:08.399Z,97850.09
2022-12-29T11:53:24.098Z,97855.38
2022-12-29T11:55:33.046Z,97863.47
2022-12-29T11:57:39.497Z,97850.50
2022-12-29T11:59:47.210Z,97855.94
2022-12-29T12:01:52.520Z,97854.00
2022-12-29T12:04:05.336Z,97864.44
2022-12-29T12:06:17.797Z,97870.66
2022-12-29T12:08:35.140Z,97867.06
2022-12-29T12:10:48.158Z,97873.03
2022-12-29T12:13:00.110Z,97865.56
2022-12-29T12:15:08.028Z,97879.41
2022-12-29T12:17:38.254Z,97877.19
2022-12-29T12:19:51.285Z,97882.66
2022-12-29T12:22:04.099Z,97882.31
2022-12-29T12:24:39.254Z,97880.41
2022-12-29T12:26:59.525Z,97888.78
2022-12-29T12:29:12.551Z,97884.09
2022-12-29T12:31:30.012Z,97889.38
2022-12-29T12:33:40.880Z,97888.50
2022-12-29T12:35:53.965Z,97887.78
2022-12-29T12:38:26.704Z,97889.28
2022-12-29T12:40:56.819Z,97889.94
2022-12-29T12:43:27.803Z,97902.88
2022-12-29T12:45:49.114Z,97907.59
2022-12-29T12:48:08.839Z,97920.19
2022-12-29T12:50:28.640Z,97906.56
2022-12-29T12:52:46.506Z,97899.47
2022-12-29T12:55:17.996Z,97904.25
2022-12-29T12:57:36.047Z,97907.94
2022-12-29T12:59:55.969Z,97915.72
2022-12-29T13:02:13.855Z,97897.31
2022-12-29T13:05:04.420Z,97906.00
2022-12-29T13:07:22.484Z,97904.94
2022-12-29T13:09:44.978Z,97906.81
2022-12-29T13:12:07.860Z,97911.59
2022-12-29T13:14:29.519Z,97904.94
2022-12-29T13:16:49.505Z,97908.31
2022-12-29T13:19:03.128Z,97907.13
2022-12-29T13:21:16.482Z,97903.16
2022-12-29T13:23:32.391Z,97913.28
2022-12-29T13:27:57.982Z,97910.28
2022-12-29T13:30:08.435Z,97917.09
2022-12-29T13:32:34.599Z,97910.09
2022-12-29T13:34:46.696Z,97915.56
2022-12-29T13:36:58.545Z,97910.63
2022-12-29T13:39:17.420Z,97912.53
2022-12-29T13:41:33.531Z,97919.09
2022-12-29T13:43:43.569Z,97913.78
2022-12-29T13:45:53.458Z,97914.88
2022-12-29T13:48:10.619Z,97922.50
2022-12-29T13:50:22.019Z,97917.56
2022-12-29T13:52:39.731Z,97907.63
2022-12-29T13:54:59.509Z,97908.84
2022-12-29T13:57:15.614Z,97910.53
2022-12-29T13:59:30.412Z,97906.72
2022-12-29T14:01:43.777Z,97920.38
2022-12-29T14:03:54.334Z,97932.09
2022-12-29T14:06:17.709Z,97939.53
2022-12-29T14:08:22.884Z,97937.78
2022-12-29T14:10:36.250Z,97940.28
2022-12-29T14:12:47.378Z,97941.34
2022-12-29T14:14:52.962Z,97936.19
2022-12-29T14:16:58.393Z,97929.59
2022-12-29T14:19:19.691Z,97931.09
2022-12-29T14:21:30.770Z,97928.94
2022-12-29T14:23:44.202Z,97929.81
2022-12-29T14:26:03.347Z,97939.50
2022-12-29T14:28:20.346Z,97944.81
2022-12-29T14:31:02.664Z,97944.94
2022-12-29T14:33:17.329Z,97942.34
2022-12-29T14:35:50.603Z,97950.91
2022-12-29T14:38:11.264Z,97951.84
2022-12-29T14:40:23.206Z,97965.19
2022-12-29T14:42:28.471Z,97957.78
2022-12-29T14:44:37.120Z,97953.38
2022-12-29T14:47:00.261Z,97960.16
2022-12-29T14:49:06.491Z,97958.75
2022-12-29T14:51:37.710Z,97963.69
2022-12-29T14:53:50.036Z,97969.66
2022-12-29T14:56:00.864Z,97968.09
2022-12-29T14:58:13.712Z,97969.31
2022-12-29T15:00:27.323Z,97970.50
2022-12-29T15:02:48.624Z,97971.56
2022-12-29T15:04:55.780Z,97969.88
2022-12-29T15:07:05.110Z,97968.38
2022-12-29T15:09:26.969Z,97972.00
2022-12-29T15:11:51.183Z,97966.16
2022-12-29T15:13:56.175Z,97964.97
2022-12-29T15:16:01.226Z,97974.53
2022-12-29T15:18:23.950Z,97973.97
2022-12-29T15:20:31.411Z,97976.44
2022-12-29T15:22:39.093Z,97972.28
2022-12-29T15:24:46.228Z,97976.44
2022-12-29T15:26:55.591Z,97977.41
2022-12-29T15:29:01.086Z,97970.75
2022-12-29T15:31:09.527Z,97971.72
2022-12-29T15:33:22.843Z,97962.00
2022-12-29T15:35:34.612Z,97960.47
2022-12-29T15:37:42.368Z,97962.34
2022-12-29T15:39:47.281Z,97965.84
2022-12-29T15:42:05.523Z,97960.59
2022-12-29T15:44:20.989Z,97955.56
2022-12-29T15:46:26.220Z,97957.91
2022-12-29T15:48:32.222Z,97970.31
2022-12-29T15:50:40.361Z,97975.34
2022-12-29T15:52:48.019Z,97973.69
2022-12-29T15:54:56.231Z,97975.47
2022-12-29T15:57:01.695Z,97974.69
2022-12-29T15:59:06.643Z,97980.50
2022-12-29T16:01:22.879Z,97988.25
2022-12-29T16:03:31.058Z,97993.47
2022-12-29T16:05:37.961Z,97993.03
2022-12-29T16:07:54.901Z,97993.34
2022-12-29T16:10:04.905Z,97995.19
2022-12-29T16:12:20.768Z,97993.91
2022-12-29T16:14:33.460Z,97998.66
2022-12-29T16:16:43.260Z,97999.72
2022-12-29T16:18:53.515Z,98003.00
2022-12-29T16:21:02.284Z,98004.84
2022-12-29T16:23:07.304Z,98001.56
2022-12-29T16:25:25.739Z,98003.22
2022-12-29T16:27:38.757Z,97999.81
2022-12-29T16:29:44.038Z,97995.41
2022-12-29T16:32:01.723Z,98007.66
2022-12-29T16:34:27.377Z,98011.19
2022-12-29T16:36:36.104Z,98015.47
2022-12-29T16:38:42.985Z,98016.34
2022-12-29T16:40:58.599Z,98018.91
2022-12-29T16:43:05.365Z,98011.75
2022-12-29T16:46:19.623Z,98015.84
2022-12-29T16:48:28.727Z,98022.03
2022-12-29T16:50:34.019Z,98018.81
2022-12-29T16:52:39.216Z,98023.88
2022-12-29T16:54:45.014Z,98023.56
2022-12-29T16:56:53.266Z,98025.81
2022-12-29T16:59:07.984Z,98022.72
2022-12-29T17:01:15.767Z,98024.75
2022-12-29T17:03:20.859Z,98030.81
2022-12-29T17:05:26.058Z,98028.31
2022-12-29T17:07:32.444Z,98023.06
2022-12-29T17:09:37.400Z,98030.16
2022-12-29T17:12:00.282Z,98029.28
2022-12-29T17:14:09.103Z,98021.97
2022-12-29T17:16:15.151Z,98027.25
2022-12-29T17:18:20.219Z,98032.25
2022-12-29T17:20:27.627Z,98042.81
2022-12-29T17:22:33.841Z,98045.69
2022-12-29T17:24:39.868Z,98048.00
2022-12-29T17:26:44.972Z,98055.78
2022-12-29T17:28:50.603Z,98060.19
2022-12-29T17:31:03.669Z,98067.38
2022-12-29T17:33:13.134Z,98061.06
2022-12-29T17:35:19.061Z,98072.63
2022-12-29T17:37:38.515Z,98064.09
2022-12-29T17:39:43.523Z,98063.91
2022-12-29T17:41:49.227Z,98066.47
2022-12-29T17:43:54.230Z,98064.16
2022-12-29T17:46:02.180Z,98060.75
2022-12-29T17:48:15.141Z,98061.91
2022-12-29T17:50:23.812Z,98063.56
2022-12-29T17:52:28.730Z,98070.00
2022-12-29T17:54:34.276Z,98071.53
2022-12-29T17:56:39.855Z,98066.75
2022-12-29T17:58:46.088Z,98076.56
2022-12-29T18:00:53.801Z,98079.75
2022-12-29T18:03:02.186Z,98089.63
2022-12-29T18:05:18.298Z,98077.75
2022-12-29T18:07:24.104Z,98079.38
2022-12-29T18:09:28.975Z,98084.09
2022-12-29T18:11:33.933Z,98089.06
2022-12-29T18:13:46.005Z,98089.06
2022-12-29T18:15:51.662Z,98094.06
2022-12-29T18:18:03.779Z,98083.94
2022-12-29T18:20:09.614Z,98092.53
2022-12-29T18:22:14.565Z,98092.66
2022-12-29T18:24:19.436Z,98095.06
2022-12-29T18:26:31.738Z,98110.41
2022-12-29T18:28:37.540Z,98099.91
2022-12-29T18:30:42.558Z,98105.19
2022-12-29T18:32:47.544Z,98095.38
2022-12-29T18:34:55.064Z,98093.75
2022-12-29T18:37:01.803Z,98095.31
2022-12-29T18:39:07.421Z,98095.38
2022-12-29T18:41:21.163Z,98093.94
2022-12-29T18:43:26.443Z,98089.81
2022-12-29T18:45:34.142Z,98103.47
2022-12-29T18:47:39.053Z,98107.88
2022-12-29T18:49:43.951Z,98110.47
2022-12-29T18:51:51.545Z,98115.50
2022-12-29T18:56:01.865Z,98124.03
2022-12-29T18:58:06.798Z,98128.31
2022-12-29T19:00:14.663Z,98139.91
2022-12-29T19:02:20.214Z,98133.91
2022-12-29T19:04:25.156Z,98132.66
2022-12-29T19:06:30.319Z,98124.66
2022-12-29T19:08:38.254Z,98120.31
2022-12-29T19:10:45.231Z,98128.28
2022-12-29T19:12:51.306Z,98133.41
2022-12-29T19:14:56.211Z,98138.22
2022-12-29T19:17:01.541Z,98136.59
2022-12-29T19:19:10.021Z,98147.69
2022-12-29T19:21:15.226Z,98137.66
2022-12-29T19:23:23.631Z,98138.59
2022-12-29T19:25:32.234Z,98136.22
2022-12-29T19:27:37.168Z,98140.53
2022-12-29T19:29:42.075Z,98135.63
2022-12-29T19:31:47.411Z,98152.31
2022-12-29T19:33:52.709Z,98149.09
2022-12-29T19:36:02.589Z,98145.91
2022-12-29T19:38:07.928Z,98140.28
2022-12-29T19:40:19.051Z,98146.06
2022-12-29T19:42:26.829Z,98137.94
2022-12-29T19:44:32.246Z,98139.41
2022-12-29T19:46:37.993Z,98142.84
2022-12-29T19:48:43.028Z,98135.44
2022-12-29T19:50:49.894Z,98142.94
2022-12-29T19:53:04.647Z,98152.97
2022-12-29T19:55:11.783Z,98137.84
2022-12-29T19:57:17.030Z,98135.44
2022-12-29T19:59:24.575Z,98140.28
2022-12-29T20:01:30.253Z,98142.69
2022-12-29T20:03:36.324Z,98136.69
2022-12-29T20:05:42.361Z,98147.38
2022-12-29T20:07:48.049Z,98145.56
2022-12-29T20:09:53.235Z,98152.31
2022-12-29T20:11:58.587Z,98161.50
2022-12-29T20:14:03.508Z,98159.00
2022-12-29T20:16:15.857Z,98158.84
2022-12-29T20:18:26.832Z,98155.53
2022-12-29T20:20:36.359Z,98154.50
2022-12-29T20:22:41.296Z,98158.56
2022-12-29T20:24:50.199Z,98166.03
2022-12-29T20:26:55.838Z,98166.16
2022-12-29T20:29:01.353Z,98165.31
2022-12-29T20:31:16.694Z,98175.16
2022-12-29T20:33:21.917Z,98166.03
2022-12-29T20:35:27.212Z,98158.56
2022-12-29T20:37:32.532Z,98165.38
2022-12-29T20:39:38.805Z,98164.50
2022-12-29T20:41:43.829Z,98180.38
2022-12-29T20:43:48.823Z,98173.91
2022-12-29T20:45:53.794Z,98178.94
2022-12-29T20:48:01.505Z,98173.16
2022-12-29T20:50:07.631Z,98175.75
2022-12-29T20:52:13.290Z,98170.56
2022-12-29T20:54:18.642Z,98174.03
2022-12-29T20:56:27.600Z,98180.03
2022-12-29T20:58:35.400Z,98179.28
2022-12-29T21:00:49.233Z,98180.91
2022-12-29T21:02:55.987Z,98179.22
2022-12-29T21:07:29.893Z,98194.72
2022-12-29T21:09:35.149Z,98196.41
2022-12-29T21:11:42.948Z,98192.22
2022-12-29T21:13:48.383Z,98186.50
2022-12-29T21:16:00.124Z,98182.31
2022-12-29T21:18:05.425Z,98189.28
2022-12-29T21:20:19.834Z,98195.38
2022-12-29T21:22:25.940Z,98189.88
2022-12-29T21:24:31.105Z,98194.31
2022-12-29T21:26:37.168Z,98204.47
2022-12-29T21:28:43.602Z,98213.41
2022-12-29T21:30:49.152Z,98222.00
2022-12-29T21:32:55.066Z,98219.00
2022-12-29T21:35:00.109Z,98216.66
2022-12-29T21:37:08.198Z,98228.59
2022-12-29T21:39:13.983Z,98230.47
2022-12-29T21:41:20.630Z,98229.63
2022-12-29T21:43:25.536Z,98228.59
2022-12-29T21:45:30.279Z,98235.38
2022-12-29T21:48:02.725Z,98237.16
2022-12-29T21:50:09.451Z,98241.28
2022-12-29T21:52:17.034Z,98243.56
2022-12-29T21:54:38.509Z,98230.13
2022-12-29T21:56:46.122Z,98224.19
2022-12-29T21:59:06.334Z,98228.22
2022-12-29T22:01:32.773Z,98227.09
2022-12-29T22:03:55.093Z,98229.50
2022-12-29T22:06:12.561Z,98241.91
2022-12-29T22:08:33.349Z,98237.63
2022-12-29T22:10:55.836Z,98243.47
2022-12-29T22:13:03.929Z,98240.91
2022-12-29T22:15:10.866Z,98245.88
2022-12-29T22:17:19.321Z,98239.94
2022-12-29T22:19:24.974Z,98251.47
2022-12-29T22:21:30.090Z,98248.69
2022-12-29T22:23:39.031Z,98241.28
2022-12-29T22:25:44.973Z,98241.84
2022-12-29T22:27:54.281Z,98248.50
2022-12-29T22:30:03.868Z,98257.84
2022-12-29T22:32:08.919Z,98262.91
2022-12-29T22:34:14.760Z,98256.09
2022-12-29T22:36:19.983Z,98251.16
2022-12-29T22:38:25.158Z,98256.25
2022-12-29T22:40:33.035Z,98266.19
2022-12-29T22:42:38.687Z,98259.53
2022-12-29T22:44:43.937Z,98264.53
2022-12-29T22:46:49.618Z,98271.38
2022-12-29T22:48:54.781Z,98273.19
2022-12-29T22:50:59.750Z,98271.28
2022-12-29T22:53:05.003Z,98275.41
2022-12-29T22:55:11.644Z,98272.88
2022-12-29T22:57:20.838Z,98272.88
2022-12-29T22:59:25.873Z,98268.22
2022-12-29T23:01:30.957Z,98270.03
2022-12-29T23:03:36.106Z,98268.47
2022-12-29T23:05:41.063Z,98268.38
2022-12-29T23:07:46.001Z,98267.00
2022-12-29T23:09:51.343Z,98272.34
2022-12-29T23:11:56.264Z,98273.44
2022-12-29T23:14:03.844Z,98283.59
2022-12-29T23:16:09.258Z,98283.88
2022-12-29T23:18:14.269Z,98306.38
2022-12-29T23:20:19.343Z,98304.84
2022-12-29T23:22:26.020Z,98304.97
2022-12-29T23:24:31.010Z,98307.38
2022-12-29T23:26:41.463Z,98303.25
2022-12-29T23:28:46.413Z,98319.28
2022-12-29T23:30:54.278Z,98323.44
2022-12-29T23:32:59.217Z,98313.25
2022-12-29T23:35:04.183Z,98313.13
2022-12-29T23:37:09.129Z,98322.91
2022-12-29T23:39:23.498Z,98326.97
2022-12-29T23:41:29.313Z,98334.50
2022-12-29T23:43:35.573Z,98336.16
2022-12-29T23:45:44.754Z,98331.13
2022-12-29T23:47:56.889Z,98344.63
2022-12-29T23:50:03.899Z,98341.34
2022-12-29T23:52:09.021Z,98348.84
2022-12-29T23:54:14.354Z,98337.16
2022-12-29T23:56:22.418Z,98357.28
2022-12-29T23:58:27.917Z,98349.84
